»·PEaware :: N30263 KWHP-KSBD

N30263 :: KWHP-KSBD

FLIGHT INFORMATION

Flight Status: Arrived
Operator: Privately registered:
United States
More flights under this callsign
Pilot: Magal H. (3488)
Aircraft: CESSNA 162 Skycatcher
(C162)
More flights by this aircraft type
Origin: KWHP Whiteman
United States
Destination: KSBD San Bernardino Intl
United States
More flights between these airports :: More routes between these airports
Route: +
File this flight plan on PilotEdge
Remarks: +FF BUR TRANSITION TO SBD
Altitude:
(Current/Filed)
0ft
Speed:
(Current/Filed)
0kts
Departed: 15-Apr-14 06:28 PM
Arrived: 15-Apr-14 07:14 PM
Distance/Time
Traveled:
59nm/0:45
Distance/Time
To Go:
Arrived

Flight Plot

Page will automatically refresh every two minutes.

Flight plan parsing failed; only flown route is shown


Map Options




Map Legend


Flown Route
Filed Route
Departure Airport
Arrival Airport
Navaid (VOR, NDB)
Fix

Horizontal Profiles

Position Reports

Time Latitude Longitude Heading Altitude Ground
Speed
15-Apr-14 18:18 34.260103 -118.412297 137 1008ft 1kts
15-Apr-14 18:19 34.257203 -118.410688 138 1008ft 21kts
15-Apr-14 18:20 34.255439 -118.408949 208 1008ft 0kts
15-Apr-14 18:21 34.255437 -118.408951 208 1008ft 0kts
15-Apr-14 18:22 34.255436 -118.408951 208 1008ft 0kts
15-Apr-14 18:23 34.255436 -118.408951 208 1008ft 0kts
15-Apr-14 18:24 34.255435 -118.408952 208 1008ft 0kts
15-Apr-14 18:25 34.255435 -118.408952 208 1008ft 0kts
15-Apr-14 18:26 34.255434 -118.408952 208 1008ft 0kts
15-Apr-14 18:27 34.255385 -118.409325 317 1008ft 10kts
15-Apr-14 18:28 34.266436 -118.420799 326 1297ft 59kts
15-Apr-14 18:29 34.279324 -118.421836 74 1764ft 63kts
15-Apr-14 18:30 34.268036 -118.402884 156 1928ft 96kts
15-Apr-14 18:31 34.246486 -118.394285 160 2378ft 97kts
15-Apr-14 18:32 34.221103 -118.376872 139 2719ft 112kts
15-Apr-14 18:33 34.211355 -118.366227 129 2358ft 105kts
15-Apr-14 18:34 34.210250 -118.364645 129 2331ft 99kts
15-Apr-14 18:35 34.193129 -118.340663 126 1766ft 98kts
15-Apr-14 18:36 34.178287 -118.314350 128 1774ft 91kts
15-Apr-14 18:37 34.162510 -118.291291 135 1949ft 87kts
15-Apr-14 18:38 34.148369 -118.267031 117 2134ft 90kts
15-Apr-14 18:39 34.142622 -118.238140 99 2586ft 89kts
15-Apr-14 18:40 34.141230 -118.209766 90 3093ft 83kts
15-Apr-14 18:41 34.142064 -118.181477 91 3519ft 85kts
15-Apr-14 18:42 34.143405 -118.150391 87 3550ft 95kts
15-Apr-14 18:43 34.144887 -118.118666 96 3449ft 93kts
15-Apr-14 18:44 34.141825 -118.092866 99 3592ft 93kts
15-Apr-14 18:45 34.138546 -118.061630 94 3710ft 97kts
15-Apr-14 18:46 34.138098 -118.028474 90 3771ft 99kts
15-Apr-14 18:47 34.136443 -117.994292 94 3734ft 102kts
15-Apr-14 18:48 34.134268 -117.960058 93 3723ft 101kts
15-Apr-14 18:49 34.132689 -117.925770 98 3694ft 103kts
15-Apr-14 18:50 34.129767 -117.891306 98 3657ft 103kts
15-Apr-14 18:51 34.126731 -117.858075 91 3693ft 99kts
15-Apr-14 18:52 34.128029 -117.824805 88 3687ft 98kts
15-Apr-14 18:53 34.129494 -117.791853 92 3677ft 97kts
15-Apr-14 18:54 34.131555 -117.758992 83 3657ft 99kts
15-Apr-14 18:55 34.135844 -117.726200 79 3646ft 99kts
15-Apr-14 18:56 34.142254 -117.693647 78 3637ft 99kts
15-Apr-14 18:57 34.145800 -117.660430 85 3630ft 99kts
15-Apr-14 18:58 34.149615 -117.627723 81 3652ft 97kts
15-Apr-14 18:59 34.154736 -117.595442 82 3652ft 97kts
15-Apr-14 19:00 34.157698 -117.563120 85 3646ft 97kts
15-Apr-14 19:01 34.154534 -117.530996 108 3636ft 95kts
15-Apr-14 19:02 34.146198 -117.500333 107 3611ft 96kts
15-Apr-14 19:03 34.140783 -117.468647 100 3597ft 96kts
15-Apr-14 19:04 34.136476 -117.436605 98 3583ft 96kts
15-Apr-14 19:05 34.133262 -117.404351 106 3571ft 96kts
15-Apr-14 19:06 34.124337 -117.374101 118 3545ft 95kts
15-Apr-14 19:07 34.111682 -117.347308 120 3439ft 87kts
15-Apr-14 19:08 34.099915 -117.319612 110 2858ft 91kts
15-Apr-14 19:09 34.096275 -117.289580 91 2420ft 89kts
15-Apr-14 19:10 34.089391 -117.260677 124 2044ft 91kts
15-Apr-14 19:11 34.086042 -117.232255 75 1800ft 89kts
15-Apr-14 19:12 34.093546 -117.206573 46 1963ft 68kts
15-Apr-14 19:13 34.100120 -117.218180 256 1295ft 54kts
15-Apr-14 19:14 34.099522 -117.226454 284 1162ft 0kts
15-Apr-14 19:15 34.101517 -117.234624 290 1162ft 32kts

Navigation Log

Ident Type
Flight plan parsing failed, navigation log unavailable